sensor_id;sensor_type;location;lat;lon;timestamp;P1;durP1;ratioP1;P2;durP2;ratioP2
26502;SDS011;14177;51.520;6.764;2023-03-19T00:00:43;6.07;;;3.20;;
26502;SDS011;14177;51.520;6.764;2023-03-19T00:03:10;5.65;;;2.80;;
26502;SDS011;14177;51.520;6.764;2023-03-19T00:05:37;11.38;;;3.10;;
26502;SDS011;14177;51.520;6.764;2023-03-19T00:08:04;9.63;;;2.90;;
26502;SDS011;14177;51.520;6.764;2023-03-19T00:10:32;8.15;;;2.75;;
26502;SDS011;14177;51.520;6.764;2023-03-19T00:13:03;5.10;;;2.10;;
26502;SDS011;14177;51.520;6.764;2023-03-19T00:15:30;4.95;;;2.40;;
26502;SDS011;14177;51.520;6.764;2023-03-19T00:17:58;10.52;;;2.58;;
26502;SDS011;14177;51.520;6.764;2023-03-19T00:20:25;14.75;;;9.27;;
26502;SDS011;14177;51.520;6.764;2023-03-19T00:22:52;9.85;;;4.70;;
26502;SDS011;14177;51.520;6.764;2023-03-19T00:25:19;6.68;;;4.30;;
26502;SDS011;14177;51.520;6.764;2023-03-19T00:27:46;5.15;;;3.13;;
26502;SDS011;14177;51.520;6.764;2023-03-19T00:30:13;4.97;;;2.70;;
26502;SDS011;14177;51.520;6.764;2023-03-19T00:32:40;5.18;;;2.72;;
26502;SDS011;14177;51.520;6.764;2023-03-19T00:35:07;7.72;;;2.97;;
26502;SDS011;14177;51.520;6.764;2023-03-19T00:37:37;5.65;;;2.50;;
26502;SDS011;14177;51.520;6.764;2023-03-19T00:40:06;4.68;;;2.28;;
26502;SDS011;14177;51.520;6.764;2023-03-19T00:42:35;5.72;;;2.60;;
26502;SDS011;14177;51.520;6.764;2023-03-19T00:45:03;5.20;;;2.33;;
26502;SDS011;14177;51.520;6.764;2023-03-19T00:47:31;4.93;;;3.00;;
26502;SDS011;14177;51.520;6.764;2023-03-19T00:49:58;3.35;;;2.40;;
26502;SDS011;14177;51.520;6.764;2023-03-19T00:52:26;7.80;;;3.35;;
26502;SDS011;14177;51.520;6.764;2023-03-19T00:54:53;7.03;;;3.30;;
26502;SDS011;14177;51.520;6.764;2023-03-19T00:57:20;8.05;;;3.17;;
26502;SDS011;14177;51.520;6.764;2023-03-19T00:59:48;8.32;;;3.10;;
26502;SDS011;14177;51.520;6.764;2023-03-19T01:02:15;7.43;;;3.70;;
26502;SDS011;14177;51.520;6.764;2023-03-19T01:04:42;10.18;;;3.22;;
26502;SDS011;14177;51.520;6.764;2023-03-19T01:07:10;9.52;;;3.47;;
26502;SDS011;14177;51.520;6.764;2023-03-19T01:09:37;4.47;;;2.72;;
26502;SDS011;14177;51.520;6.764;2023-03-19T01:12:04;7.50;;;3.03;;
26502;SDS011;14177;51.520;6.764;2023-03-19T01:14:33;6.78;;;2.95;;
26502;SDS011;14177;51.520;6.764;2023-03-19T01:17:00;7.38;;;3.25;;
26502;SDS011;14177;51.520;6.764;2023-03-19T01:19:27;5.97;;;2.90;;
26502;SDS011;14177;51.520;6.764;2023-03-19T01:21:55;6.00;;;2.70;;
26502;SDS011;14177;51.520;6.764;2023-03-19T01:24:22;7.57;;;3.17;;
26502;SDS011;14177;51.520;6.764;2023-03-19T01:26:53;4.82;;;3.10;;
26502;SDS011;14177;51.520;6.764;2023-03-19T01:29:38;5.53;;;2.95;;
26502;SDS011;14177;51.520;6.764;2023-03-19T01:32:11;4.40;;;2.80;;
26502;SDS011;14177;51.520;6.764;2023-03-19T01:34:57;6.43;;;2.92;;
26502;SDS011;14177;51.520;6.764;2023-03-19T01:37:24;5.90;;;3.08;;
26502;SDS011;14177;51.520;6.764;2023-03-19T01:39:51;6.15;;;2.63;;
26502;SDS011;14177;51.520;6.764;2023-03-19T01:42:18;6.63;;;2.40;;
26502;SDS011;14177;51.520;6.764;2023-03-19T01:51:17;7.18;;;2.55;;
26502;SDS011;14177;51.520;6.764;2023-03-19T01:54:02;5.85;;;2.88;;
26502;SDS011;14177;51.520;6.764;2023-03-19T01:56:44;5.72;;;3.38;;
26502;SDS011;14177;51.520;6.764;2023-03-19T01:59:27;7.68;;;3.03;;
26502;SDS011;14177;51.520;6.764;2023-03-19T02:02:21;6.10;;;2.70;;
26502;SDS011;14177;51.520;6.764;2023-03-19T02:05:03;4.47;;;2.47;;
26502;SDS011;14177;51.520;6.764;2023-03-19T02:07:37;3.47;;;1.88;;
26502;SDS011;14177;51.520;6.764;2023-03-19T02:10:09;4.22;;;2.17;;
26502;SDS011;14177;51.520;6.764;2023-03-19T02:12:40;5.28;;;1.98;;
26502;SDS011;14177;51.520;6.764;2023-03-19T02:15:07;5.25;;;1.95;;
26502;SDS011;14177;51.520;6.764;2023-03-19T02:17:34;5.30;;;1.70;;
26502;SDS011;14177;51.520;6.764;2023-03-19T02:20:03;4.93;;;2.03;;
26502;SDS011;14177;51.520;6.764;2023-03-19T02:23:07;5.65;;;2.13;;
26502;SDS011;14177;51.520;6.764;2023-03-19T02:28:15;5.88;;;2.25;;
26502;SDS011;14177;51.520;6.764;2023-03-19T02:30:50;5.78;;;2.03;;
26502;SDS011;14177;51.520;6.764;2023-03-19T02:33:18;3.38;;;1.90;;
26502;SDS011;14177;51.520;6.764;2023-03-19T02:35:46;3.58;;;2.15;;
26502;SDS011;14177;51.520;6.764;2023-03-19T02:38:17;6.82;;;2.20;;
26502;SDS011;14177;51.520;6.764;2023-03-19T02:40:49;5.65;;;2.42;;
26502;SDS011;14177;51.520;6.764;2023-03-19T02:43:25;3.50;;;2.00;;
26502;SDS011;14177;51.520;6.764;2023-03-19T02:45:53;7.20;;;2.08;;
26502;SDS011;14177;51.520;6.764;2023-03-19T02:48:21;4.78;;;2.38;;
26502;SDS011;14177;51.520;6.764;2023-03-19T02:50:49;5.97;;;2.20;;
26502;SDS011;14177;51.520;6.764;2023-03-19T02:53:16;4.93;;;2.42;;
26502;SDS011;14177;51.520;6.764;2023-03-19T02:55:43;4.10;;;2.17;;
26502;SDS011;14177;51.520;6.764;2023-03-19T02:58:10;5.20;;;2.65;;
26502;SDS011;14177;51.520;6.764;2023-03-19T03:00:37;5.65;;;2.30;;
26502;SDS011;14177;51.520;6.764;2023-03-19T03:03:05;4.22;;;2.15;;
26502;SDS011;14177;51.520;6.764;2023-03-19T03:05:33;4.97;;;2.50;;
26502;SDS011;14177;51.520;6.764;2023-03-19T03:08:01;7.28;;;2.92;;
26502;SDS011;14177;51.520;6.764;2023-03-19T03:10:30;6.25;;;2.60;;
26502;SDS011;14177;51.520;6.764;2023-03-19T03:12:59;6.75;;;2.35;;
26502;SDS011;14177;51.520;6.764;2023-03-19T03:15:29;5.57;;;2.70;;
26502;SDS011;14177;51.520;6.764;2023-03-19T03:17:59;4.68;;;2.83;;
26502;SDS011;14177;51.520;6.764;2023-03-19T03:20:31;4.60;;;2.75;;
26502;SDS011;14177;51.520;6.764;2023-03-19T03:23:04;6.93;;;3.05;;
26502;SDS011;14177;51.520;6.764;2023-03-19T03:25:43;7.05;;;3.03;;
26502;SDS011;14177;51.520;6.764;2023-03-19T03:28:30;6.80;;;3.03;;
26502;SDS011;14177;51.520;6.764;2023-03-19T03:31:07;4.43;;;2.90;;
26502;SDS011;14177;51.520;6.764;2023-03-19T03:33:43;7.35;;;3.22;;
26502;SDS011;14177;51.520;6.764;2023-03-19T03:36:17;6.32;;;2.80;;
26502;SDS011;14177;51.520;6.764;2023-03-19T03:38:55;6.80;;;3.45;;
26502;SDS011;14177;51.520;6.764;2023-03-19T03:41:33;4.40;;;3.10;;
26502;SDS011;14177;51.520;6.764;2023-03-19T03:44:14;12.23;;;3.35;;
26502;SDS011;14177;51.520;6.764;2023-03-19T03:46:59;9.60;;;5.07;;
26502;SDS011;14177;51.520;6.764;2023-03-19T03:49:34;10.38;;;4.55;;
26502;SDS011;14177;51.520;6.764;2023-03-19T03:52:08;7.85;;;4.57;;
26502;SDS011;14177;51.520;6.764;2023-03-19T03:54:47;9.98;;;3.70;;
26502;SDS011;14177;51.520;6.764;2023-03-19T03:57:19;6.88;;;4.07;;
26502;SDS011;14177;51.520;6.764;2023-03-19T04:00:03;6.97;;;3.50;;
26502;SDS011;14177;51.520;6.764;2023-03-19T04:02:42;12.02;;;4.80;;
26502;SDS011;14177;51.520;6.764;2023-03-19T04:05:14;16.45;;;4.40;;
26502;SDS011;14177;51.520;6.764;2023-03-19T04:07:51;8.93;;;4.70;;
26502;SDS011;14177;51.520;6.764;2023-03-19T04:10:26;13.45;;;5.35;;
26502;SDS011;14177;51.520;6.764;2023-03-19T04:12:59;12.45;;;4.97;;
26502;SDS011;14177;51.520;6.764;2023-03-19T04:15:30;8.73;;;4.70;;
26502;SDS011;14177;51.520;6.764;2023-03-19T04:18:04;7.50;;;4.10;;
26502;SDS011;14177;51.520;6.764;2023-03-19T04:20:35;7.95;;;4.15;;
26502;SDS011;14177;51.520;6.764;2023-03-19T04:23:08;17.73;;;7.82;;
26502;SDS011;14177;51.520;6.764;2023-03-19T04:25:39;11.73;;;4.97;;
26502;SDS011;14177;51.520;6.764;2023-03-19T04:28:11;13.70;;;5.88;;
26502;SDS011;14177;51.520;6.764;2023-03-19T04:30:42;10.38;;;4.78;;
26502;SDS011;14177;51.520;6.764;2023-03-19T04:33:13;8.88;;;4.20;;
26502;SDS011;14177;51.520;6.764;2023-03-19T04:35:44;12.73;;;5.05;;
26502;SDS011;14177;51.520;6.764;2023-03-19T04:38:13;12.75;;;5.03;;
26502;SDS011;14177;51.520;6.764;2023-03-19T04:40:43;11.43;;;4.53;;
26502;SDS011;14177;51.520;6.764;2023-03-19T04:43:15;15.75;;;5.38;;
26502;SDS011;14177;51.520;6.764;2023-03-19T04:45:45;17.40;;;6.35;;
26502;SDS011;14177;51.520;6.764;2023-03-19T04:48:17;11.73;;;5.55;;
26502;SDS011;14177;51.520;6.764;2023-03-19T04:50:52;9.10;;;4.47;;
26502;SDS011;14177;51.520;6.764;2023-03-19T04:53:24;7.72;;;4.10;;
26502;SDS011;14177;51.520;6.764;2023-03-19T04:55:58;7.22;;;3.70;;
26502;SDS011;14177;51.520;6.764;2023-03-19T04:58:32;6.93;;;3.90;;
26502;SDS011;14177;51.520;6.764;2023-03-19T05:01:01;8.65;;;4.20;;
26502;SDS011;14177;51.520;6.764;2023-03-19T05:03:50;9.25;;;3.70;;
26502;SDS011;14177;51.520;6.764;2023-03-19T05:06:20;10.13;;;4.22;;
26502;SDS011;14177;51.520;6.764;2023-03-19T05:08:50;20.65;;;6.45;;
26502;SDS011;14177;51.520;6.764;2023-03-19T05:11:20;11.05;;;4.90;;
26502;SDS011;14177;51.520;6.764;2023-03-19T05:13:59;9.40;;;4.15;;
26502;SDS011;14177;51.520;6.764;2023-03-19T05:16:43;9.43;;;3.60;;
26502;SDS011;14177;51.520;6.764;2023-03-19T05:19:15;8.43;;;3.60;;
26502;SDS011;14177;51.520;6.764;2023-03-19T05:21:45;9.48;;;4.15;;
26502;SDS011;14177;51.520;6.764;2023-03-19T05:24:21;8.13;;;3.72;;
26502;SDS011;14177;51.520;6.764;2023-03-19T05:26:54;7.43;;;3.78;;
26502;SDS011;14177;51.520;6.764;2023-03-19T05:29:41;9.60;;;4.00;;
26502;SDS011;14177;51.520;6.764;2023-03-19T05:32:37;13.40;;;4.38;;
26502;SDS011;14177;51.520;6.764;2023-03-19T05:35:13;9.50;;;4.25;;
26502;SDS011;14177;51.520;6.764;2023-03-19T05:37:45;7.68;;;4.40;;
26502;SDS011;14177;51.520;6.764;2023-03-19T05:40:17;7.50;;;4.15;;
26502;SDS011;14177;51.520;6.764;2023-03-19T05:42:52;8.60;;;4.07;;
26502;SDS011;14177;51.520;6.764;2023-03-19T05:45:24;10.75;;;5.55;;
26502;SDS011;14177;51.520;6.764;2023-03-19T05:48:00;12.88;;;6.38;;
26502;SDS011;14177;51.520;6.764;2023-03-19T05:50:38;11.25;;;5.40;;
26502;SDS011;14177;51.520;6.764;2023-03-19T05:53:18;11.80;;;6.15;;
26502;SDS011;14177;51.520;6.764;2023-03-19T05:56:04;11.73;;;5.28;;
26502;SDS011;14177;51.520;6.764;2023-03-19T05:58:54;10.98;;;4.20;;
26502;SDS011;14177;51.520;6.764;2023-03-19T06:01:29;6.53;;;3.67;;
26502;SDS011;14177;51.520;6.764;2023-03-19T06:03:59;11.30;;;4.30;;
26502;SDS011;14177;51.520;6.764;2023-03-19T06:06:40;6.45;;;3.80;;
26502;SDS011;14177;51.520;6.764;2023-03-19T06:09:25;8.07;;;4.40;;
26502;SDS011;14177;51.520;6.764;2023-03-19T06:11:55;12.85;;;5.47;;
26502;SDS011;14177;51.520;6.764;2023-03-19T06:14:46;8.00;;;4.68;;
26502;SDS011;14177;51.520;6.764;2023-03-19T06:17:35;6.47;;;3.13;;
26502;SDS011;14177;51.520;6.764;2023-03-19T06:20:08;6.13;;;3.00;;
26502;SDS011;14177;51.520;6.764;2023-03-19T06:22:43;8.20;;;3.42;;
26502;SDS011;14177;51.520;6.764;2023-03-19T06:25:14;6.75;;;3.47;;
26502;SDS011;14177;51.520;6.764;2023-03-19T06:27:54;6.80;;;4.03;;
26502;SDS011;14177;51.520;6.764;2023-03-19T06:30:40;8.13;;;3.22;;
26502;SDS011;14177;51.520;6.764;2023-03-19T06:33:42;6.97;;;4.13;;
26502;SDS011;14177;51.520;6.764;2023-03-19T06:36:41;6.82;;;3.50;;
26502;SDS011;14177;51.520;6.764;2023-03-19T06:39:25;10.27;;;4.20;;
26502;SDS011;14177;51.520;6.764;2023-03-19T06:42:03;12.15;;;5.35;;
26502;SDS011;14177;51.520;6.764;2023-03-19T06:44:35;8.23;;;4.90;;
26502;SDS011;14177;51.520;6.764;2023-03-19T06:47:05;9.20;;;5.13;;
26502;SDS011;14177;51.520;6.764;2023-03-19T06:49:39;7.50;;;4.20;;
26502;SDS011;14177;51.520;6.764;2023-03-19T06:52:07;8.27;;;5.03;;
26502;SDS011;14177;51.520;6.764;2023-03-19T06:54:42;9.40;;;5.38;;
26502;SDS011;14177;51.520;6.764;2023-03-19T06:57:13;8.07;;;4.78;;
26502;SDS011;14177;51.520;6.764;2023-03-19T06:59:43;9.75;;;5.90;;
26502;SDS011;14177;51.520;6.764;2023-03-19T07:02:13;13.95;;;6.40;;
26502;SDS011;14177;51.520;6.764;2023-03-19T07:04:42;9.57;;;5.82;;
26502;SDS011;14177;51.520;6.764;2023-03-19T07:07:14;11.30;;;5.78;;
26502;SDS011;14177;51.520;6.764;2023-03-19T07:09:47;12.55;;;5.70;;
26502;SDS011;14177;51.520;6.764;2023-03-19T07:12:16;9.55;;;4.97;;
26502;SDS011;14177;51.520;6.764;2023-03-19T07:14:48;18.02;;;8.93;;
26502;SDS011;14177;51.520;6.764;2023-03-19T07:17:16;22.58;;;9.07;;
26502;SDS011;14177;51.520;6.764;2023-03-19T07:19:43;11.40;;;6.97;;
26502;SDS011;14177;51.520;6.764;2023-03-19T07:22:10;13.50;;;7.50;;
26502;SDS011;14177;51.520;6.764;2023-03-19T07:24:36;15.32;;;7.72;;
26502;SDS011;14177;51.520;6.764;2023-03-19T07:27:03;12.35;;;7.20;;
26502;SDS011;14177;51.520;6.764;2023-03-19T07:29:31;9.18;;;6.20;;
26502;SDS011;14177;51.520;6.764;2023-03-19T07:31:58;11.40;;;6.45;;
26502;SDS011;14177;51.520;6.764;2023-03-19T07:34:25;11.98;;;5.50;;
26502;SDS011;14177;51.520;6.764;2023-03-19T07:36:52;8.57;;;5.30;;
26502;SDS011;14177;51.520;6.764;2023-03-19T07:39:19;14.48;;;5.63;;
26502;SDS011;14177;51.520;6.764;2023-03-19T07:41:47;9.38;;;4.70;;
26502;SDS011;14177;51.520;6.764;2023-03-19T07:44:14;7.93;;;4.47;;
26502;SDS011;14177;51.520;6.764;2023-03-19T07:46:42;10.77;;;4.43;;
26502;SDS011;14177;51.520;6.764;2023-03-19T07:49:09;7.18;;;4.32;;
26502;SDS011;14177;51.520;6.764;2023-03-19T07:51:36;6.70;;;4.40;;
26502;SDS011;14177;51.520;6.764;2023-03-19T07:54:05;7.60;;;4.38;;
26502;SDS011;14177;51.520;6.764;2023-03-19T07:56:32;10.60;;;4.90;;
26502;SDS011;14177;51.520;6.764;2023-03-19T07:59:00;13.25;;;5.40;;
26502;SDS011;14177;51.520;6.764;2023-03-19T08:01:26;14.43;;;6.03;;
26502;SDS011;14177;51.520;6.764;2023-03-19T08:03:53;10.65;;;6.15;;
26502;SDS011;14177;51.520;6.764;2023-03-19T08:06:20;11.88;;;6.93;;
26502;SDS011;14177;51.520;6.764;2023-03-19T08:08:48;11.35;;;5.40;;
26502;SDS011;14177;51.520;6.764;2023-03-19T08:11:16;8.18;;;5.25;;
26502;SDS011;14177;51.520;6.764;2023-03-19T08:13:43;9.40;;;5.05;;
26502;SDS011;14177;51.520;6.764;2023-03-19T08:16:10;8.43;;;5.18;;
26502;SDS011;14177;51.520;6.764;2023-03-19T08:18:38;7.88;;;4.75;;
26502;SDS011;14177;51.520;6.764;2023-03-19T08:21:05;7.50;;;5.00;;
26502;SDS011;14177;51.520;6.764;2023-03-19T08:23:32;7.90;;;4.55;;
26502;SDS011;14177;51.520;6.764;2023-03-19T08:26:00;7.75;;;4.57;;
26502;SDS011;14177;51.520;6.764;2023-03-19T08:28:27;8.32;;;5.15;;
26502;SDS011;14177;51.520;6.764;2023-03-19T08:30:54;8.02;;;4.90;;
26502;SDS011;14177;51.520;6.764;2023-03-19T08:33:25;7.55;;;5.35;;
26502;SDS011;14177;51.520;6.764;2023-03-19T08:36:12;9.32;;;5.55;;
26502;SDS011;14177;51.520;6.764;2023-03-19T08:38:39;10.25;;;4.93;;
26502;SDS011;14177;51.520;6.764;2023-03-19T08:41:07;10.25;;;5.18;;
26502;SDS011;14177;51.520;6.764;2023-03-19T08:43:35;6.97;;;5.18;;
26502;SDS011;14177;51.520;6.764;2023-03-19T08:46:03;6.53;;;5.03;;
26502;SDS011;14177;51.520;6.764;2023-03-19T08:48:31;9.07;;;5.28;;
26502;SDS011;14177;51.520;6.764;2023-03-19T08:50:59;6.70;;;4.70;;
26502;SDS011;14177;51.520;6.764;2023-03-19T08:53:29;6.63;;;5.00;;
26502;SDS011;14177;51.520;6.764;2023-03-19T08:55:58;7.32;;;4.50;;
26502;SDS011;14177;51.520;6.764;2023-03-19T08:58:27;8.45;;;5.68;;
26502;SDS011;14177;51.520;6.764;2023-03-19T09:01:02;9.65;;;5.53;;
26502;SDS011;14177;51.520;6.764;2023-03-19T09:03:36;10.27;;;6.68;;
26502;SDS011;14177;51.520;6.764;2023-03-19T09:06:04;10.68;;;7.47;;
26502;SDS011;14177;51.520;6.764;2023-03-19T09:08:49;9.30;;;6.13;;
26502;SDS011;14177;51.520;6.764;2023-03-19T09:11:16;10.98;;;6.28;;
26502;SDS011;14177;51.520;6.764;2023-03-19T09:13:48;9.82;;;6.15;;
26502;SDS011;14177;51.520;6.764;2023-03-19T09:16:15;8.57;;;5.50;;
26502;SDS011;14177;51.520;6.764;2023-03-19T09:18:42;8.77;;;5.80;;
26502;SDS011;14177;51.520;6.764;2023-03-19T09:21:09;11.00;;;5.45;;
26502;SDS011;14177;51.520;6.764;2023-03-19T09:23:36;7.03;;;4.63;;
26502;SDS011;14177;51.520;6.764;2023-03-19T09:26:17;9.35;;;6.72;;
26502;SDS011;14177;51.520;6.764;2023-03-19T09:28:44;8.05;;;6.20;;
26502;SDS011;14177;51.520;6.764;2023-03-19T09:31:11;11.52;;;6.63;;
26502;SDS011;14177;51.520;6.764;2023-03-19T09:33:38;9.63;;;5.32;;
26502;SDS011;14177;51.520;6.764;2023-03-19T09:36:05;6.85;;;5.68;;
26502;SDS011;14177;51.520;6.764;2023-03-19T09:38:32;8.40;;;5.43;;
26502;SDS011;14177;51.520;6.764;2023-03-19T09:41:06;7.60;;;5.50;;
26502;SDS011;14177;51.520;6.764;2023-03-19T09:46:45;9.50;;;5.95;;
26502;SDS011;14177;51.520;6.764;2023-03-19T09:49:20;10.25;;;6.30;;
26502;SDS011;14177;51.520;6.764;2023-03-19T09:51:56;9.00;;;6.88;;
26502;SDS011;14177;51.520;6.764;2023-03-19T09:57:11;13.32;;;6.93;;
26502;SDS011;14177;51.520;6.764;2023-03-19T09:59:40;9.45;;;6.80;;
26502;SDS011;14177;51.520;6.764;2023-03-19T10:09:03;8.93;;;6.80;;
26502;SDS011;14177;51.520;6.764;2023-03-19T10:17:16;6.32;;;4.78;;
26502;SDS011;14177;51.520;6.764;2023-03-19T10:19:52;4.88;;;3.97;;
26502;SDS011;14177;51.520;6.764;2023-03-19T10:23:01;4.72;;;3.90;;
26502;SDS011;14177;51.520;6.764;2023-03-19T10:26:01;7.05;;;4.32;;
26502;SDS011;14177;51.520;6.764;2023-03-19T10:28:30;7.57;;;4.68;;
26502;SDS011;14177;51.520;6.764;2023-03-19T10:34:09;6.05;;;3.88;;
26502;SDS011;14177;51.520;6.764;2023-03-19T10:37:04;6.70;;;4.15;;
26502;SDS011;14177;51.520;6.764;2023-03-19T10:39:39;5.22;;;4.28;;
26502;SDS011;14177;51.520;6.764;2023-03-19T10:42:30;7.18;;;4.13;;
26502;SDS011;14177;51.520;6.764;2023-03-19T10:45:28;5.78;;;3.97;;
26502;SDS011;14177;51.520;6.764;2023-03-19T10:48:04;8.30;;;4.13;;
26502;SDS011;14177;51.520;6.764;2023-03-19T10:50:42;6.93;;;4.15;;
26502;SDS011;14177;51.520;6.764;2023-03-19T10:53:29;5.25;;;4.10;;
26502;SDS011;14177;51.520;6.764;2023-03-19T10:56:02;8.10;;;4.28;;
26502;SDS011;14177;51.520;6.764;2023-03-19T10:58:33;5.35;;;3.90;;
26502;SDS011;14177;51.520;6.764;2023-03-19T11:01:04;6.57;;;4.28;;
26502;SDS011;14177;51.520;6.764;2023-03-19T11:03:40;8.43;;;4.15;;
26502;SDS011;14177;51.520;6.764;2023-03-19T11:11:46;5.40;;;3.67;;
26502;SDS011;14177;51.520;6.764;2023-03-19T11:14:19;7.87;;;4.33;;
26502;SDS011;14177;51.520;6.764;2023-03-19T11:17:13;8.80;;;4.32;;
26502;SDS011;14177;51.520;6.764;2023-03-19T11:19:53;6.43;;;3.92;;
26502;SDS011;14177;51.520;6.764;2023-03-19T11:22:26;5.78;;;3.20;;
26502;SDS011;14177;51.520;6.764;2023-03-19T11:25:02;5.43;;;3.22;;
26502;SDS011;14177;51.520;6.764;2023-03-19T11:28:00;4.63;;;3.08;;
26502;SDS011;14177;51.520;6.764;2023-03-19T11:36:29;8.57;;;3.13;;
26502;SDS011;14177;51.520;6.764;2023-03-19T11:39:28;4.95;;;3.20;;
26502;SDS011;14177;51.520;6.764;2023-03-19T11:53:52;4.22;;;2.00;;
26502;SDS011;14177;51.520;6.764;2023-03-19T11:56:59;4.80;;;2.05;;
26502;SDS011;14177;51.520;6.764;2023-03-19T12:06:27;5.03;;;1.70;;
26502;SDS011;14177;51.520;6.764;2023-03-19T12:11:52;2.53;;;2.05;;
26502;SDS011;14177;51.520;6.764;2023-03-19T12:15:00;5.78;;;4.32;;
26502;SDS011;14177;51.520;6.764;2023-03-19T12:17:43;4.43;;;1.90;;
26502;SDS011;14177;51.520;6.764;2023-03-19T12:26:12;4.53;;;2.15;;
26502;SDS011;14177;51.520;6.764;2023-03-19T12:31:38;3.45;;;2.15;;
26502;SDS011;14177;51.520;6.764;2023-03-19T12:34:35;4.60;;;2.30;;
26502;SDS011;14177;51.520;6.764;2023-03-19T12:40:05;3.85;;;2.10;;
26502;SDS011;14177;51.520;6.764;2023-03-19T12:42:45;4.65;;;2.40;;
26502;SDS011;14177;51.520;6.764;2023-03-19T12:45:22;4.15;;;2.10;;
26502;SDS011;14177;51.520;6.764;2023-03-19T12:47:56;4.78;;;2.20;;
26502;SDS011;14177;51.520;6.764;2023-03-19T12:50:36;2.53;;;1.60;;
26502;SDS011;14177;51.520;6.764;2023-03-19T12:53:13;3.70;;;2.00;;
26502;SDS011;14177;51.520;6.764;2023-03-19T12:56:12;3.60;;;1.85;;
26502;SDS011;14177;51.520;6.764;2023-03-19T13:10:38;2.63;;;1.67;;
26502;SDS011;14177;51.520;6.764;2023-03-19T13:13:41;4.60;;;2.00;;
26502;SDS011;14177;51.520;6.764;2023-03-19T13:16:15;4.72;;;1.88;;
26502;SDS011;14177;51.520;6.764;2023-03-19T13:22:23;4.50;;;1.67;;
26502;SDS011;14177;51.520;6.764;2023-03-19T13:25:00;4.20;;;1.73;;
26502;SDS011;14177;51.520;6.764;2023-03-19T13:27:30;2.65;;;1.67;;
26502;SDS011;14177;51.520;6.764;2023-03-19T13:35:49;2.33;;;1.40;;
26502;SDS011;14177;51.520;6.764;2023-03-19T13:38:18;2.10;;;1.40;;
26502;SDS011;14177;51.520;6.764;2023-03-19T13:40:53;3.33;;;1.25;;
26502;SDS011;14177;51.520;6.764;2023-03-19T13:59:29;2.22;;;1.15;;
26502;SDS011;14177;51.520;6.764;2023-03-19T14:01:58;2.50;;;1.10;;
26502;SDS011;14177;51.520;6.764;2023-03-19T14:09:48;3.30;;;1.70;;
26502;SDS011;14177;51.520;6.764;2023-03-19T14:12:42;4.27;;;1.20;;
26502;SDS011;14177;51.520;6.764;2023-03-19T14:15:14;2.97;;;1.17;;
26502;SDS011;14177;51.520;6.764;2023-03-19T14:31:35;4.82;;;1.00;;
26502;SDS011;14177;51.520;6.764;2023-03-19T14:34:20;3.40;;;0.73;;
26502;SDS011;14177;51.520;6.764;2023-03-19T14:37:14;2.83;;;0.80;;
26502;SDS011;14177;51.520;6.764;2023-03-19T14:39:44;2.63;;;0.70;;
26502;SDS011;14177;51.520;6.764;2023-03-19T14:46:08;2.35;;;0.80;;
26502;SDS011;14177;51.520;6.764;2023-03-19T14:49:25;3.95;;;0.85;;
26502;SDS011;14177;51.520;6.764;2023-03-19T14:52:16;2.78;;;0.73;;
26502;SDS011;14177;51.520;6.764;2023-03-19T14:54:58;3.08;;;1.02;;
26502;SDS011;14177;51.520;6.764;2023-03-19T14:57:33;3.30;;;1.00;;
26502;SDS011;14177;51.520;6.764;2023-03-19T15:00:01;3.38;;;1.20;;
26502;SDS011;14177;51.520;6.764;2023-03-19T15:02:39;4.47;;;1.00;;
26502;SDS011;14177;51.520;6.764;2023-03-19T15:05:19;3.30;;;1.10;;
26502;SDS011;14177;51.520;6.764;2023-03-19T15:07:54;5.13;;;1.27;;
26502;SDS011;14177;51.520;6.764;2023-03-19T15:10:59;3.92;;;1.17;;
26502;SDS011;14177;51.520;6.764;2023-03-19T15:19:50;4.63;;;1.38;;
26502;SDS011;14177;51.520;6.764;2023-03-19T15:22:20;6.15;;;1.33;;
26502;SDS011;14177;51.520;6.764;2023-03-19T15:24:54;6.00;;;1.83;;
26502;SDS011;14177;51.520;6.764;2023-03-19T15:27:35;5.68;;;1.40;;
26502;SDS011;14177;51.520;6.764;2023-03-19T15:30:08;3.25;;;1.38;;
26502;SDS011;14177;51.520;6.764;2023-03-19T15:32:49;4.22;;;1.52;;
26502;SDS011;14177;51.520;6.764;2023-03-19T15:35:34;2.65;;;1.33;;
26502;SDS011;14177;51.520;6.764;2023-03-19T15:38:06;5.93;;;1.40;;
26502;SDS011;14177;51.520;6.764;2023-03-19T15:40:37;5.90;;;1.33;;
26502;SDS011;14177;51.520;6.764;2023-03-19T15:43:08;4.95;;;1.50;;
26502;SDS011;14177;51.520;6.764;2023-03-19T15:45:38;3.30;;;1.55;;
26502;SDS011;14177;51.520;6.764;2023-03-19T15:48:55;6.45;;;1.50;;
26502;SDS011;14177;51.520;6.764;2023-03-19T15:51:11;3.17;;;1.30;;
26502;SDS011;14177;51.520;6.764;2023-03-19T15:53:42;6.22;;;1.73;;
26502;SDS011;14177;51.520;6.764;2023-03-19T15:56:12;6.07;;;1.38;;
26502;SDS011;14177;51.520;6.764;2023-03-19T15:58:49;3.35;;;1.42;;
26502;SDS011;14177;51.520;6.764;2023-03-19T16:01:22;5.10;;;1.70;;
26502;SDS011;14177;51.520;6.764;2023-03-19T16:03:55;6.45;;;2.33;;
26502;SDS011;14177;51.520;6.764;2023-03-19T16:06:35;6.78;;;2.08;;
26502;SDS011;14177;51.520;6.764;2023-03-19T16:16:49;3.72;;;1.90;;
26502;SDS011;14177;51.520;6.764;2023-03-19T16:19:34;5.30;;;2.00;;
26502;SDS011;14177;51.520;6.764;2023-03-19T16:22:27;5.35;;;1.80;;
26502;SDS011;14177;51.520;6.764;2023-03-19T16:24:57;6.75;;;2.10;;
26502;SDS011;14177;51.520;6.764;2023-03-19T16:27:34;6.70;;;1.63;;
26502;SDS011;14177;51.520;6.764;2023-03-19T16:30:14;5.38;;;1.77;;
26502;SDS011;14177;51.520;6.764;2023-03-19T16:33:03;4.63;;;1.80;;
26502;SDS011;14177;51.520;6.764;2023-03-19T16:35:32;7.05;;;1.60;;
26502;SDS011;14177;51.520;6.764;2023-03-19T16:44:15;3.78;;;1.70;;
26502;SDS011;14177;51.520;6.764;2023-03-19T16:46:43;4.43;;;1.70;;
26502;SDS011;14177;51.520;6.764;2023-03-19T16:49:11;4.68;;;1.60;;
26502;SDS011;14177;51.520;6.764;2023-03-19T16:51:38;6.82;;;1.80;;
26502;SDS011;14177;51.520;6.764;2023-03-19T16:54:39;6.95;;;2.08;;
26502;SDS011;14177;51.520;6.764;2023-03-19T16:57:08;6.43;;;1.70;;
26502;SDS011;14177;51.520;6.764;2023-03-19T16:59:38;5.03;;;1.67;;
26502;SDS011;14177;51.520;6.764;2023-03-19T17:02:09;5.45;;;1.80;;
26502;SDS011;14177;51.520;6.764;2023-03-19T17:04:42;8.63;;;1.98;;
26502;SDS011;14177;51.520;6.764;2023-03-19T17:07:11;8.65;;;2.10;;
26502;SDS011;14177;51.520;6.764;2023-03-19T17:09:38;4.95;;;1.83;;
26502;SDS011;14177;51.520;6.764;2023-03-19T17:12:06;5.22;;;1.60;;
26502;SDS011;14177;51.520;6.764;2023-03-19T17:14:39;5.03;;;2.10;;
26502;SDS011;14177;51.520;6.764;2023-03-19T17:17:25;9.70;;;2.03;;
26502;SDS011;14177;51.520;6.764;2023-03-19T17:19:52;7.25;;;1.90;;
26502;SDS011;14177;51.520;6.764;2023-03-19T17:22:19;7.55;;;1.90;;
26502;SDS011;14177;51.520;6.764;2023-03-19T17:24:46;9.68;;;4.10;;
26502;SDS011;14177;51.520;6.764;2023-03-19T17:27:13;7.43;;;2.35;;
26502;SDS011;14177;51.520;6.764;2023-03-19T17:29:40;5.85;;;2.35;;
26502;SDS011;14177;51.520;6.764;2023-03-19T17:32:09;6.57;;;2.60;;
26502;SDS011;14177;51.520;6.764;2023-03-19T17:34:43;9.25;;;2.72;;
26502;SDS011;14177;51.520;6.764;2023-03-19T17:37:11;8.10;;;2.75;;
26502;SDS011;14177;51.520;6.764;2023-03-19T17:39:40;6.75;;;2.50;;
26502;SDS011;14177;51.520;6.764;2023-03-19T17:42:17;6.80;;;2.50;;
26502;SDS011;14177;51.520;6.764;2023-03-19T17:44:48;8.68;;;2.67;;
26502;SDS011;14177;51.520;6.764;2023-03-19T17:47:16;6.93;;;2.95;;
26502;SDS011;14177;51.520;6.764;2023-03-19T17:49:44;6.47;;;2.22;;
26502;SDS011;14177;51.520;6.764;2023-03-19T17:52:12;8.35;;;3.28;;
26502;SDS011;14177;51.520;6.764;2023-03-19T17:54:42;8.70;;;2.40;;
26502;SDS011;14177;51.520;6.764;2023-03-19T17:57:13;5.35;;;2.15;;
26502;SDS011;14177;51.520;6.764;2023-03-19T17:59:41;7.82;;;2.42;;
26502;SDS011;14177;51.520;6.764;2023-03-19T18:02:20;9.23;;;2.95;;